Time;durP1;ratioP1;P1;durP2;ratioP2;P2;SDS_P1;SDS_P2;PMS_P1;PMS_P2;Temp;Humidity;BMP_temperature;BMP_pressure;BME280_temperature;BME280_humidity;BME280_pressure;Samples;Min_cycle;Max_cycle;Signal;HPM_P1;HPM_P2
2023/05/04 00:02:25;;;;;;;22.10;11.30;;;;;;;;;;10272928;28;20489;-79
2023/05/04 00:07:26;;;;;;;23.57;12.10;;;;;;;;;;10283928;28;20038;-79
2023/05/04 00:12:31;;;;;;;23.77;12.60;;;;;;;;;;10283792;28;20042;-79
2023/05/04 00:17:32;;;;;;;21.37;12.60;;;;;;;;;;10289076;28;20034;-79
2023/05/04 00:22:33;;;;;;;22.80;12.60;;;;;;;;;;10284021;28;20485;-79
2023/05/04 00:27:36;;;;;;;23.30;11.60;;;;;;;;;;10280294;28;20047;-79
2023/05/04 00:32:37;;;;;;;21.67;11.83;;;;;;;;;;10272987;28;20071;-79
2023/05/04 00:37:38;;;;;;;23.00;11.60;;;;;;;;;;10282615;28;20105;-79
2023/05/04 00:42:39;;;;;;;22.63;11.40;;;;;;;;;;10281088;28;20045;-79
2023/05/04 00:47:41;;;;;;;19.73;10.73;;;;;;;;;;10281586;28;20039;-79
2023/05/04 00:52:45;;;;;;;23.63;12.43;;;;;;;;;;10282293;28;20498;-80
2023/05/04 00:57:47;;;;;;;19.90;11.83;;;;;;;;;;10280868;28;20126;-79
2023/05/04 01:02:49;;;;;;;21.93;11.63;;;;;;;;;;10280432;28;20048;-80
2023/05/04 01:08:22;;;;;;;16.50;10.03;;;;;;;;;;10281479;28;20117;-78
2023/05/04 01:13:27;;;;;;;19.10;10.13;;;;;;;;;;10246750;28;20053;-79
2023/05/04 01:18:30;;;;;;;19.63;10.33;;;;;;;;;;10280256;28;20093;-79
2023/05/04 01:23:31;;;;;;;18.37;9.50;;;;;;;;;;10279913;28;20035;-79
2023/05/04 01:28:41;;;;;;;15.77;9.87;;;;;;;;;;10280758;28;20114;-79
2023/05/04 01:33:49;;;;;;;17.67;10.43;;;;;;;;;;10281079;28;20038;-79
2023/05/04 01:38:54;;;;;;;19.70;9.43;;;;;;;;;;10280140;28;20050;-81
2023/05/04 01:43:57;;;;;;;16.23;8.60;;;;;;;;;;10279454;28;20027;-79
2023/05/04 01:48:58;;;;;;;16.53;9.10;;;;;;;;;;10270170;28;20483;-79
2023/05/04 01:54:01;;;;;;;15.33;8.20;;;;;;;;;;10280749;28;20046;-79
2023/05/04 01:59:02;;;;;;;16.47;8.57;;;;;;;;;;10276602;28;20451;-79
2023/05/04 02:04:03;;;;;;;15.53;9.00;;;;;;;;;;10279934;28;20030;-79
2023/05/04 02:09:06;;;;;;;16.97;9.03;;;;;;;;;;10265536;28;20015;-80
2023/05/04 02:14:07;;;;;;;15.50;8.17;;;;;;;;;;10282615;28;20039;-79
2023/05/04 02:19:08;;;;;;;14.23;7.43;;;;;;;;;;10287962;28;20705;-79
2023/05/04 02:24:09;;;;;;;14.03;7.60;;;;;;;;;;10288078;28;20031;-79
2023/05/04 02:29:10;;;;;;;15.57;8.70;;;;;;;;;;10284460;28;20041;-79
2023/05/04 02:34:11;;;;;;;17.27;8.93;;;;;;;;;;10288167;28;20098;-80
2023/05/04 02:39:12;;;;;;;18.33;9.60;;;;;;;;;;10287033;28;20577;-79
2023/05/04 02:44:13;;;;;;;16.67;9.27;;;;;;;;;;10273955;28;20031;-79
2023/05/04 02:49:14;;;;;;;16.77;8.50;;;;;;;;;;10285425;28;20078;-80
2023/05/04 02:54:15;;;;;;;18.10;8.57;;;;;;;;;;10286769;28;20150;-81
2023/05/04 02:59:18;;;;;;;19.07;8.33;;;;;;;;;;10282444;28;20047;-79
2023/05/04 03:04:19;;;;;;;13.30;7.33;;;;;;;;;;10286307;28;20049;-80
2023/05/04 03:09:20;;;;;;;17.10;9.00;;;;;;;;;;10280743;28;20038;-81
2023/05/04 03:14:28;;;;;;;14.73;8.37;;;;;;;;;;10272013;28;20101;-80
2023/05/04 03:19:31;;;;;;;16.43;7.30;;;;;;;;;;10282764;28;20120;-80
2023/05/04 03:24:32;;;;;;;13.80;6.97;;;;;;;;;;10284624;28;20046;-78
2023/05/04 03:29:33;;;;;;;13.90;7.83;;;;;;;;;;10274760;28;20034;-78
2023/05/04 03:34:34;;;;;;;13.33;7.37;;;;;;;;;;10283574;28;20500;-80
2023/05/04 03:39:37;;;;;;;13.73;7.57;;;;;;;;;;10283637;28;20047;-80
2023/05/04 03:44:38;;;;;;;16.03;7.00;;;;;;;;;;10273649;28;20042;-79
2023/05/04 03:49:39;;;;;;;14.93;7.17;;;;;;;;;;10280999;28;20447;-81
2023/05/04 03:54:40;;;;;;;14.93;7.80;;;;;;;;;;10273047;28;20045;-78
2023/05/04 03:59:41;;;;;;;15.77;7.73;;;;;;;;;;10277423;28;20055;-79
2023/05/04 04:04:42;;;;;;;9.77;6.43;;;;;;;;;;10283940;28;20041;-79
2023/05/04 04:09:43;;;;;;;13.37;6.97;;;;;;;;;;10278131;28;20027;-79
2023/05/04 04:14:44;;;;;;;12.50;6.90;;;;;;;;;;10277989;28;20034;-83
2023/05/04 04:19:45;;;;;;;11.90;6.70;;;;;;;;;;10282984;28;20050;-80
2023/05/04 04:24:48;;;;;;;17.37;6.77;;;;;;;;;;10282196;28;20086;-80
2023/05/04 04:29:49;;;;;;;13.50;6.50;;;;;;;;;;10270803;28;20078;-78
2023/05/04 04:34:55;;;;;;;12.50;6.83;;;;;;;;;;10281743;28;20109;-78
2023/05/04 04:39:56;;;;;;;12.43;6.05;;;;;;;;;;10280732;28;20050;-79
2023/05/04 04:44:59;;;;;;;16.00;6.80;;;;;;;;;;10281771;28;20034;-81
2023/05/04 04:50:03;;;;;;;11.67;6.20;;;;;;;;;;10282954;28;20047;-79
2023/05/04 04:55:06;;;;;;;12.27;5.93;;;;;;;;;;10282900;28;20471;-78
2023/05/04 05:00:08;;;;;;;11.60;5.83;;;;;;;;;;10282465;28;20085;-79
2023/05/04 05:05:11;;;;;;;9.80;5.87;;;;;;;;;;10282234;28;20558;-78
2023/05/04 05:10:12;;;;;;;12.23;6.30;;;;;;;;;;10282385;28;20038;-79
2023/05/04 05:15:16;;;;;;;12.40;5.87;;;;;;;;;;10281592;28;20042;-78
2023/05/04 05:20:16;;;;;;;14.80;6.07;;;;;;;;;;10281951;28;20049;-79
2023/05/04 05:25:22;;;;;;;12.93;6.83;;;;;;;;;;10264363;28;20061;-79
2023/05/04 05:30:27;;;;;;;10.93;6.68;;;;;;;;;;10281182;28;20035;-79
2023/05/04 05:35:30;;;;;;;13.27;6.90;;;;;;;;;;10263922;28;20039;-80
2023/05/04 05:40:31;;;;;;;11.43;6.43;;;;;;;;;;10281415;28;20117;-79
2023/05/04 05:45:32;;;;;;;11.73;6.73;;;;;;;;;;10280863;28;20106;-78
2023/05/04 05:50:36;;;;;;;13.50;7.20;;;;;;;;;;10281239;28;20037;-79
2023/05/04 05:55:37;;;;;;;15.27;7.33;;;;;;;;;;10280940;28;20023;-81
2023/05/04 06:00:42;;;;;;;11.07;6.23;;;;;;;;;;10280692;28;20674;-80
2023/05/04 06:05:43;;;;;;;12.40;6.27;;;;;;;;;;10281005;28;20759;-81
2023/05/04 06:10:46;;;;;;;11.00;5.63;;;;;;;;;;10281068;28;20027;-81
2023/05/04 06:15:51;;;;;;;13.05;5.97;;;;;;;;;;10280527;28;20045;-79
2023/05/04 06:20:57;;;;;;;8.90;5.25;;;;;;;;;;10280339;28;20050;-79
2023/05/04 06:26:00;;;;;;;10.18;5.68;;;;;;;;;;10280358;28;20043;-79
2023/05/04 06:31:03;;;;;;;9.70;5.28;;;;;;;;;;10280486;28;20452;-78
2023/05/04 06:36:05;;;;;;;8.35;4.78;;;;;;;;;;10280080;28;20483;-79
2023/05/04 06:41:08;;;;;;;8.93;4.50;;;;;;;;;;10279767;28;20066;-80
2023/05/04 06:46:11;;;;;;;10.43;5.63;;;;;;;;;;10280043;28;20107;-80
2023/05/04 06:51:12;;;;;;;8.82;4.55;;;;;;;;;;10279969;28;20039;-79
2023/05/04 06:56:13;;;;;;;7.32;4.93;;;;;;;;;;10280229;28;20570;-78
2023/05/04 07:01:13;;;;;;;6.88;3.90;;;;;;;;;;10286355;28;20058;-80
2023/05/04 07:06:14;;;;;;;4.00;3.00;;;;;;;;;;10287200;28;20102;-80
2023/05/04 07:11:16;;;;;;;12.07;3.85;;;;;;;;;;10286474;28;20052;-79
2023/05/04 07:16:17;;;;;;;5.53;3.03;;;;;;;;;;10286387;28;20077;-80
2023/05/04 07:21:18;;;;;;;5.03;3.15;;;;;;;;;;10272788;28;20126;-79
2023/05/04 07:26:20;;;;;;;6.78;3.47;;;;;;;;;;10285938;28;20043;-79
2023/05/04 07:31:23;;;;;;;8.52;3.80;;;;;;;;;;10285076;28;20450;-80
2023/05/04 07:36:26;;;;;;;4.18;2.97;;;;;;;;;;10286061;28;20035;-81
2023/05/04 07:41:27;;;;;;;5.78;3.47;;;;;;;;;;10285096;28;20045;-78
2023/05/04 07:46:30;;;;;;;7.40;3.13;;;;;;;;;;10285781;28;20041;-78
2023/05/04 07:51:33;;;;;;;5.32;3.33;;;;;;;;;;10284514;28;20034;-82
2023/05/04 07:56:34;;;;;;;6.05;2.85;;;;;;;;;;10285464;28;20035;-79
2023/05/04 08:01:37;;;;;;;5.93;3.13;;;;;;;;;;10284274;28;20494;-78
2023/05/04 08:06:41;;;;;;;8.40;3.28;;;;;;;;;;10284863;28;20035;-81
2023/05/04 08:11:42;;;;;;;4.10;2.40;;;;;;;;;;10283767;28;20041;-78
2023/05/04 08:16:43;;;;;;;4.45;2.92;;;;;;;;;;10284128;28;20038;-80
2023/05/04 08:21:44;;;;;;;4.28;2.55;;;;;;;;;;10283929;28;20033;-79
2023/05/04 08:26:47;;;;;;;4.63;2.92;;;;;;;;;;10283962;28;20047;-80
2023/05/04 08:31:48;;;;;;;7.78;3.08;;;;;;;;;;10283391;28;20036;-79
2023/05/04 08:36:51;;;;;;;5.93;2.88;;;;;;;;;;10282858;28;20496;-80
2023/05/04 08:41:52;;;;;;;4.70;3.10;;;;;;;;;;10282895;28;20490;-79
2023/05/04 08:46:53;;;;;;;5.43;3.05;;;;;;;;;;10282912;28;20030;-78
2023/05/04 08:51:58;;;;;;;4.57;2.53;;;;;;;;;;10282778;28;20105;-79
2023/05/04 08:57:02;;;;;;;5.32;2.78;;;;;;;;;;10282361;28;20027;-78
2023/05/04 09:02:03;;;;;;;5.97;2.50;;;;;;;;;;10282340;28;20066;-78
2023/05/04 09:07:05;;;;;;;4.55;2.45;;;;;;;;;;10281744;28;20117;-78
2023/05/04 09:12:06;;;;;;;4.13;2.60;;;;;;;;;;10282020;28;20022;-78
2023/05/04 09:17:24;;;;;;;4.25;2.63;;;;;;;;;;10281337;28;20031;-80
2023/05/04 09:22:25;;;;;;;4.43;2.60;;;;;;;;;;10281409;28;20042;-78
2023/05/04 09:27:26;;;;;;;4.93;2.85;;;;;;;;;;10280900;28;20501;-80
2023/05/04 09:32:27;;;;;;;5.95;2.70;;;;;;;;;;10281300;28;20031;-80
2023/05/04 09:37:29;;;;;;;4.80;2.22;;;;;;;;;;10281138;28;20142;-79
2023/05/04 09:42:30;;;;;;;4.78;2.25;;;;;;;;;;10267601;28;20035;-81
2023/05/04 09:47:38;;;;;;;3.67;2.00;;;;;;;;;;10281493;28;20035;-80
2023/05/04 09:52:43;;;;;;;2.20;2.00;;;;;;;;;;10280593;28;20670;-78
2023/05/04 09:57:45;;;;;;;3.67;2.50;;;;;;;;;;10281019;28;20068;-80
2023/05/04 10:02:46;;;;;;;3.13;1.98;;;;;;;;;;10281016;28;20303;-79
2023/05/04 10:07:49;;;;;;;4.13;2.55;;;;;;;;;;10281363;28;20098;-80
2023/05/04 10:12:51;;;;;;;2.80;2.50;;;;;;;;;;10280950;28;20485;-78
2023/05/04 10:17:55;;;;;;;5.30;2.35;;;;;;;;;;10280689;28;20097;-78
2023/05/04 10:23:15;;;;;;;3.58;2.35;;;;;;;;;;10280222;28;20129;-80
2023/05/04 10:28:35;;;;;;;4.93;2.72;;;;;;;;;;10280062;28;20042;-78
2023/05/04 10:33:40;;;;;;;5.65;2.30;;;;;;;;;;10283540;28;20047;-80
2023/05/04 10:38:43;;;;;;;2.63;2.00;;;;;;;;;;10287609;28;20117;-78
2023/05/04 10:43:50;;;;;;;3.08;2.10;;;;;;;;;;10287497;28;20038;-78
2023/05/04 10:48:51;;;;;;;4.43;2.42;;;;;;;;;;10287259;28;20034;-78
2023/05/04 10:53:53;;;;;;;4.07;2.40;;;;;;;;;;10287406;28;20483;-78
2023/05/04 10:58:56;;;;;;;6.60;2.60;;;;;;;;;;10287268;28;20443;-81
2023/05/04 11:03:57;;;;;;;3.35;2.22;;;;;;;;;;10286732;28;20039;-80
2023/05/04 11:09:05;;;;;;;6.07;2.60;;;;;;;;;;10286805;28;20022;-81
2023/05/04 11:14:06;;;;;;;5.50;1.90;;;;;;;;;;10286159;28;20039;-78
2023/05/04 11:19:08;;;;;;;3.17;2.50;;;;;;;;;;10286546;28;20467;-80
2023/05/04 11:24:09;;;;;;;3.53;2.40;;;;;;;;;;10285158;28;20050;-78
2023/05/04 11:29:13;;;;;;;5.88;2.58;;;;;;;;;;10285990;28;20035;-78
2023/05/04 11:34:23;;;;;;;4.47;2.60;;;;;;;;;;10285519;28;20407;-78
2023/05/04 11:39:25;;;;;;;3.40;2.10;;;;;;;;;;10285319;28;20038;-81
2023/05/04 11:44:26;;;;;;;3.42;2.15;;;;;;;;;;10283884;28;20045;-78
2023/05/04 11:49:29;;;;;;;4.43;2.28;;;;;;;;;;10285191;28;20490;-78
2023/05/04 11:54:31;;;;;;;3.42;2.38;;;;;;;;;;10284994;28;20167;-78
2023/05/04 11:59:32;;;;;;;4.07;2.50;;;;;;;;;;10284629;28;20047;-78
2023/05/04 12:04:33;;;;;;;6.18;2.63;;;;;;;;;;10285134;28;20066;-79
2023/05/04 12:09:44;;;;;;;3.72;2.28;;;;;;;;;;10271341;28;20449;-80
2023/05/04 12:14:49;;;;;;;3.10;2.20;;;;;;;;;;10274052;28;20066;-79
2023/05/04 12:19:51;;;;;;;3.85;2.22;;;;;;;;;;10277556;28;20610;-80
2023/05/04 12:24:52;;;;;;;5.45;2.22;;;;;;;;;;10281885;28;20113;-79
2023/05/04 12:29:53;;;;;;;4.68;2.60;;;;;;;;;;10283058;28;20086;-80
2023/05/04 12:34:55;;;;;;;4.40;2.13;;;;;;;;;;10273213;28;20585;-80
2023/05/04 12:39:56;;;;;;;2.45;1.95;;;;;;;;;;10256704;28;20043;-80
2023/05/04 12:44:57;;;;;;;3.08;1.90;;;;;;;;;;10282439;28;20039;-80
2023/05/04 12:50:00;;;;;;;2.65;1.67;;;;;;;;;;10281950;28;20030;-79
2023/05/04 12:55:01;;;;;;;6.35;2.53;;;;;;;;;;10272994;28;20034;-81
2023/05/04 13:00:04;;;;;;;3.92;2.00;;;;;;;;;;10279471;28;20054;-82
2023/05/04 13:05:06;;;;;;;14.02;6.57;;;;;;;;;;10282181;28;20560;-80
2023/05/04 13:10:07;;;;;;;3.38;2.08;;;;;;;;;;10269725;28;20023;-80
2023/05/04 13:15:08;;;;;;;2.47;2.08;;;;;;;;;;10270990;28;20034;-79
2023/05/04 13:20:10;;;;;;;3.08;1.92;;;;;;;;;;10271006;28;20064;-79
2023/05/04 13:25:11;;;;;;;5.90;1.98;;;;;;;;;;10281179;28;20061;-80
2023/05/04 13:30:12;;;;;;;5.05;2.10;;;;;;;;;;10267697;28;20031;-80
2023/05/04 13:35:13;;;;;;;4.25;1.98;;;;;;;;;;10269654;28;20038;-79
2023/05/04 13:40:14;;;;;;;4.50;2.10;;;;;;;;;;10281733;28;20066;-79
2023/05/04 13:45:15;;;;;;;7.28;4.20;;;;;;;;;;10263817;28;20439;-79
2023/05/04 13:50:17;;;;;;;3.05;1.83;;;;;;;;;;10280307;28;20031;-80
2023/05/04 13:55:19;;;;;;;4.95;2.10;;;;;;;;;;10281478;28;20027;-79
2023/05/04 14:00:20;;;;;;;2.58;2.17;;;;;;;;;;10280823;28;20054;-80
2023/05/04 14:05:21;;;;;;;2.22;1.80;;;;;;;;;;10280821;28;20026;-79
2023/05/04 14:10:22;;;;;;;5.72;2.92;;;;;;;;;;10287041;28;20015;-80
2023/05/04 14:15:23;;;;;;;3.75;2.00;;;;;;;;;;10288803;28;20057;-80
2023/05/04 14:20:24;;;;;;;3.88;2.30;;;;;;;;;;10288217;28;20471;-79
2023/05/04 14:25:25;;;;;;;3.45;1.88;;;;;;;;;;10287812;28;20045;-79
2023/05/04 14:30:26;;;;;;;3.55;1.88;;;;;;;;;;10288135;28;20027;-79
2023/05/04 14:35:27;;;;;;;2.42;1.90;;;;;;;;;;10287906;28;20697;-79
2023/05/04 14:40:28;;;;;;;4.47;2.47;;;;;;;;;;10287122;28;20565;-79
2023/05/04 14:45:30;;;;;;;2.67;2.20;;;;;;;;;;10288016;28;20684;-81
2023/05/04 14:50:31;;;;;;;4.03;2.28;;;;;;;;;;10286494;28;20038;-80
2023/05/04 14:55:33;;;;;;;3.63;2.00;;;;;;;;;;10269754;28;20111;-79
2023/05/04 15:00:34;;;;;;;3.10;2.63;;;;;;;;;;10283403;28;20057;-79
2023/05/04 15:05:35;;;;;;;3.65;2.28;;;;;;;;;;10282288;28;20487;-79
2023/05/04 15:10:36;;;;;;;4.40;1.80;;;;;;;;;;10286580;28;20023;-80
2023/05/04 15:15:40;;;;;;;3.30;2.30;;;;;;;;;;10277270;28;20387;-80
2023/05/04 15:20:41;;;;;;;4.55;2.40;;;;;;;;;;10278881;28;20414;-79
2023/05/04 15:25:42;;;;;;;3.83;2.08;;;;;;;;;;10284043;28;20035;-80
2023/05/04 15:30:43;;;;;;;5.68;2.47;;;;;;;;;;10285362;28;20459;-79
2023/05/04 15:35:44;;;;;;;3.90;2.20;;;;;;;;;;10283577;28;20049;-80
2023/05/04 15:40:45;;;;;;;3.17;2.10;;;;;;;;;;10284631;28;20060;-80
2023/05/04 15:45:46;;;;;;;4.63;2.60;;;;;;;;;;10285172;28;20028;-81
2023/05/04 15:50:47;;;;;;;3.03;2.17;;;;;;;;;;10283657;28;20042;-80
2023/05/04 15:55:49;;;;;;;5.65;2.10;;;;;;;;;;10284331;28;20105;-79
2023/05/04 16:00:50;;;;;;;3.92;2.65;;;;;;;;;;10284856;28;20051;-79
2023/05/04 16:05:51;;;;;;;5.20;2.63;;;;;;;;;;10281521;28;20027;-80
2023/05/04 16:10:53;;;;;;;5.25;2.33;;;;;;;;;;10271457;28;20023;-79
2023/05/04 16:15:54;;;;;;;5.57;2.13;;;;;;;;;;10283276;28;20839;-80
2023/05/04 16:20:55;;;;;;;3.47;2.25;;;;;;;;;;10283089;28;20126;-80
2023/05/04 16:25:56;;;;;;;3.20;2.10;;;;;;;;;;10282896;28;20055;-81
2023/05/04 16:30:57;;;;;;;5.00;2.22;;;;;;;;;;10281071;28;20027;-81
2023/05/04 16:35:58;;;;;;;3.45;2.30;;;;;;;;;;10283319;28;20169;-79
2023/05/04 16:41:00;;;;;;;3.55;2.17;;;;;;;;;;10279912;28;20050;-79
2023/05/04 16:46:01;;;;;;;4.43;2.45;;;;;;;;;;10283790;28;20030;-79
2023/05/04 16:51:06;;;;;;;3.58;2.05;;;;;;;;;;10277571;28;20042;-81
2023/05/04 16:56:07;;;;;;;2.88;1.70;;;;;;;;;;10276598;28;20833;-80
2023/05/04 17:01:08;;;;;;;5.30;1.95;;;;;;;;;;10266380;28;20066;-80
2023/05/04 17:06:09;;;;;;;3.35;2.20;;;;;;;;;;10280917;28;20019;-79
2023/05/04 17:11:11;;;;;;;2.72;1.90;;;;;;;;;;10279115;28;20481;-79
2023/05/04 17:16:12;;;;;;;5.95;2.17;;;;;;;;;;10272306;28;20019;-80
2023/05/04 17:21:13;;;;;;;2.28;1.70;;;;;;;;;;10280158;28;20046;-79
2023/05/04 17:26:14;;;;;;;4.32;2.42;;;;;;;;;;10281330;28;20125;-80
2023/05/04 17:31:15;;;;;;;3.78;1.75;;;;;;;;;;10279121;28;20070;-79
2023/05/04 17:36:16;;;;;;;9.00;2.30;;;;;;;;;;10264002;28;20062;-78
2023/05/04 17:41:17;;;;;;;3.25;2.45;;;;;;;;;;10261564;28;20123;-78
2023/05/04 17:46:18;;;;;;;4.18;2.10;;;;;;;;;;10272013;28;20031;-78
2023/05/04 17:51:21;;;;;;;4.07;2.35;;;;;;;;;;10278726;28;20054;-79
2023/05/04 17:56:22;;;;;;;4.53;2.70;;;;;;;;;;10280701;28;20022;-78
2023/05/04 18:01:23;;;;;;;5.35;3.40;;;;;;;;;;10279483;28;20101;-78
2023/05/04 18:06:24;;;;;;;10.70;6.38;;;;;;;;;;10265451;28;20066;-79
2023/05/04 18:11:25;;;;;;;15.48;6.80;;;;;;;;;;10260951;28;20042;-79
2023/05/04 18:16:26;;;;;;;13.63;6.25;;;;;;;;;;10278785;28;20102;-79
2023/05/04 18:21:27;;;;;;;16.08;7.82;;;;;;;;;;10268125;28;20046;-78
2023/05/04 18:26:29;;;;;;;17.35;7.93;;;;;;;;;;10280755;28;20090;-79
2023/05/04 18:31:30;;;;;;;18.23;8.50;;;;;;;;;;10273676;28;20391;-80
2023/05/04 18:36:34;;;;;;;31.17;18.00;;;;;;;;;;10272819;28;20054;-79
2023/05/04 18:41:35;;;;;;;57.70;32.20;;;;;;;;;;10275907;28;20078;-80
2023/05/04 18:46:36;;;;;;;35.42;19.85;;;;;;;;;;10272377;28;20533;-80
2023/05/04 18:51:40;;;;;;;23.77;12.77;;;;;;;;;;10278124;28;20445;-81
2023/05/04 18:56:41;;;;;;;23.98;11.38;;;;;;;;;;10284507;28;20121;-80
2023/05/04 19:01:42;;;;;;;20.35;9.82;;;;;;;;;;10248308;28;20098;-79
2023/05/04 19:06:44;;;;;;;25.98;13.50;;;;;;;;;;10246458;29;20035;-80
2023/05/04 19:11:47;;;;;;;22.85;12.63;;;;;;;;;;10246768;29;20399;-80
2023/05/04 19:16:48;;;;;;;21.77;12.05;;;;;;;;;;10237247;29;20046;-80
2023/05/04 19:21:52;;;;;;;19.90;11.00;;;;;;;;;;10234885;29;20118;-80
2023/05/04 19:26:53;;;;;;;20.00;10.43;;;;;;;;;;10236242;29;20133;-80
2023/05/04 19:31:54;;;;;;;19.35;10.00;;;;;;;;;;10243880;29;20031;-79
2023/05/04 19:36:55;;;;;;;17.25;9.48;;;;;;;;;;10236834;29;20440;-80
2023/05/04 19:41:56;;;;;;;21.02;10.38;;;;;;;;;;10236138;29;20486;-80
2023/05/04 19:46:57;;;;;;;20.55;11.45;;;;;;;;;;10228700;29;20039;-81
2023/05/04 19:51:58;;;;;;;21.55;9.80;;;;;;;;;;10234312;29;20054;-81
2023/05/04 19:56:59;;;;;;;19.73;10.82;;;;;;;;;;10214330;29;20031;-79
2023/05/04 20:02:00;;;;;;;15.95;9.45;;;;;;;;;;10244422;29;20055;-80
2023/05/04 20:07:01;;;;;;;11.75;7.55;;;;;;;;;;10244562;28;20035;-79
2023/05/04 20:12:02;;;;;;;10.05;6.70;;;;;;;;;;10244031;29;20373;-80
2023/05/04 20:17:03;;;;;;;13.50;7.15;;;;;;;;;;10244086;29;20110;-79
2023/05/04 20:22:04;;;;;;;14.15;7.63;;;;;;;;;;10244913;29;20110;-80
2023/05/04 20:27:05;;;;;;;15.23;8.13;;;;;;;;;;10244042;29;20035;-79
2023/05/04 20:32:07;;;;;;;13.48;8.20;;;;;;;;;;10230831;29;20043;-80
2023/05/04 20:37:08;;;;;;;17.70;9.25;;;;;;;;;;10241348;29;20043;-80
2023/05/04 20:42:09;;;;;;;18.85;9.60;;;;;;;;;;10243261;29;20031;-79
2023/05/04 20:47:10;;;;;;;16.88;9.02;;;;;;;;;;10242644;29;20043;-79
2023/05/04 20:52:11;;;;;;;14.63;8.43;;;;;;;;;;10243357;29;20031;-80
2023/05/04 20:57:12;;;;;;;15.38;8.40;;;;;;;;;;10242799;29;20684;-79
2023/05/04 21:02:13;;;;;;;20.33;11.93;;;;;;;;;;10214680;29;20146;-80
2023/05/04 21:07:14;;;;;;;16.85;9.32;;;;;;;;;;10242732;29;20231;-80
2023/05/04 21:12:16;;;;;;;13.57;8.05;;;;;;;;;;10242607;29;20118;-79
2023/05/04 21:17:17;;;;;;;16.83;8.75;;;;;;;;;;10240368;28;20174;-79
2023/05/04 21:22:18;;;;;;;15.43;9.17;;;;;;;;;;10241917;29;20497;-78
2023/05/04 21:27:20;;;;;;;14.40;7.60;;;;;;;;;;10242311;29;20035;-79
2023/05/04 21:32:21;;;;;;;16.77;8.02;;;;;;;;;;10241331;29;20507;-80
2023/05/04 21:37:24;;;;;;;16.98;7.32;;;;;;;;;;10241852;29;20039;-80
2023/05/04 21:42:25;;;;;;;15.27;8.45;;;;;;;;;;10241295;29;20054;-81
2023/05/04 21:47:26;;;;;;;17.15;9.00;;;;;;;;;;10216387;29;21152;-80
2023/05/04 21:52:28;;;;;;;12.27;7.10;;;;;;;;;;10241366;29;20070;-80
2023/05/04 21:57:32;;;;;;;11.57;6.95;;;;;;;;;;10242582;28;20111;-80
2023/05/04 22:02:33;;;;;;;14.32;7.47;;;;;;;;;;10280911;28;20082;-80
2023/05/04 22:07:34;;;;;;;12.03;6.40;;;;;;;;;;10281459;28;20035;-80
2023/05/04 22:12:35;;;;;;;14.87;6.03;;;;;;;;;;10280460;28;20035;-80
2023/05/04 22:17:35;;;;;;;10.23;6.33;;;;;;;;;;10279520;28;20035;-80
2023/05/04 22:22:36;;;;;;;9.63;5.30;;;;;;;;;;10280948;28;20042;-80
2023/05/04 22:27:37;;;;;;;8.67;5.33;;;;;;;;;;10251465;28;20035;-81
2023/05/04 22:32:38;;;;;;;12.77;7.13;;;;;;;;;;10273528;28;20039;-79
2023/05/04 22:37:39;;;;;;;11.93;6.78;;;;;;;;;;10287054;28;20110;-80
2023/05/04 22:42:43;;;;;;;13.63;6.97;;;;;;;;;;10287105;28;20546;-81
2023/05/04 22:47:45;;;;;;;10.50;6.60;;;;;;;;;;10280590;28;20035;-81
2023/05/04 22:52:46;;;;;;;11.30;6.67;;;;;;;;;;10287081;28;20117;-80
2023/05/04 22:57:47;;;;;;;10.67;6.90;;;;;;;;;;10286883;28;20054;-79
2023/05/04 23:02:48;;;;;;;12.63;6.23;;;;;;;;;;10286929;28;20709;-81
2023/05/04 23:07:50;;;;;;;12.20;6.27;;;;;;;;;;10295879;28;20034;-80
2023/05/04 23:12:52;;;;;;;9.52;5.57;;;;;;;;;;10285861;28;20173;-81
2023/05/04 23:17:53;;;;;;;11.15;5.90;;;;;;;;;;10273244;28;20065;-80
2023/05/04 23:22:54;;;;;;;12.90;7.30;;;;;;;;;;10285785;28;20053;-80
2023/05/04 23:27:55;;;;;;;15.73;7.70;;;;;;;;;;10285864;28;20145;-80
2023/05/04 23:32:57;;;;;;;13.93;8.87;;;;;;;;;;10285491;28;20037;-79
2023/05/04 23:37:58;;;;;;;19.93;10.70;;;;;;;;;;10285343;28;20113;-82
2023/05/04 23:42:59;;;;;;;19.87;10.37;;;;;;;;;;10284809;28;20034;-82
2023/05/04 23:48:00;;;;;;;23.77;10.53;;;;;;;;;;10284696;28;20035;-80
2023/05/04 23:53:01;;;;;;;22.83;10.93;;;;;;;;;;10285120;28;20529;-79
2023/05/04 23:58:02;;;;;;;20.80;10.63;;;;;;;;;;10285387;28;20543;-80
